Tropical Cyclones
[Index]
Main Index Home Page Stock Weather Photos Extreme Storms Discussion Storm News and Storm Chasing Reports Tropical Cyclones / Hurricanes / Typhoons Weather Data and Links Wild Fires / Bushfires Weather Observation Techniques Weather Picture Catalogue Tornado Pictures and Reports Stock Video Footage and DVDs for sale
Season 1956-1957 Tropical Cyclone 195724 Track Map
Season 1956-1957 Summaries: [BoM-AU] [JTWC-AU] [JTWC-SIO] [JTWC-SPAC] [JTWC-SH]
<<- Previous TC | JTWC 1956-1957 Season | Next TC ->>

click for intensity scale information  Lat/long Grid: Show Hide

 Date Labels: Show Hide

Joint Typhoon Warning Centre Cyclone Data

Name: 195724
Number: 301 / 5724

03 Mar 1957 18:00 UTC to 10 Mar 1957 12:00 UTC

    date/time    lat    long     hPa   cat  kts
1957-03-03 18   11.0   127.0                  10          
1957-03-04 00   11.0   127.0                  20          
1957-03-04 06   11.2   127.4                  20          
1957-03-04 12   11.6   127.9                  20          
1957-03-04 18   12.0   128.4                  20          
1957-03-05 00   12.4   128.9                  15          
1957-03-05 06   12.7   129.2                  15          
1957-03-05 12   13.0   129.4                  20          
1957-03-05 18   13.3   129.7                  20          
1957-03-06 00   13.4   129.9                  20          
1957-03-06 06   13.5   130.2                  20          
1957-03-06 12   13.6   130.4                  20          
1957-03-06 18   13.6   130.7                  20          
1957-03-07 00   13.9   130.9                  20          
1957-03-07 06   14.5   131.4                  20          
1957-03-07 12   15.3   131.9                  20          
1957-03-07 18   16.0   132.4                  20          
1957-03-08 00   16.8   132.9                  15          
1957-03-08 06   17.4   133.4                  10          
1957-03-08 12   17.7   133.9                  10          
1957-03-08 18   18.0   134.4                  10          
1957-03-09 00   18.3   134.9                  10          
1957-03-09 06   18.4   135.5                  10          
1957-03-09 12   18.1   136.3                  20          
1957-03-09 18   17.8   137.0                  25          
1957-03-10 00   17.7   137.8                  20          
1957-03-10 06   17.7   138.5                              
1957-03-10 12   18.0   139.3                              
Winds are 1-min average.

Tropical cyclone tracks developed by Michael Bath using data from the Joint Typhoon Warning Centre Best Tracks and Google Maps.


[Australian Severe Weather index] [Copyright Notice] [Email Contacts] [Search This Site] [Privacy Policy]
Document: tropical_cyclone_195724.htm Updated: 18 September 2016